| Date | Time | Temp. (oF) | Dew Point (oF) | Rel. Hum. (%) | Press. (in.) | Wind Dir. | Wind Speed (mph) | Hourly Rainfall (in.) |
|
|---|---|---|---|---|---|---|---|---|---|
| 1 | 04/20 | 00:00 | 48 | 44 | 87 | 29.94 | ESE | 19 | 0.00 |
| 2 | 04/19 | 23:00 | 48 | 43 | 83 | 29.99 | ESE | 4 | 0.01 |
| 3 | 04/19 | 22:00 | 50 | 39 | 68 | 30.03 | E | 7 | 0.00 |
| 4 | 04/19 | 21:00 | 52 | 33 | 49 | 30.05 | E | 7 | 0.00 |
| 5 | 04/19 | 20:00 | 54 | 35 | 49 | 30.06 | SE | 5 | 0.00 |
| 6 | 04/19 | 19:00 | 56 | 39 | 53 | 30.06 | S | 4 | 0.00 |
| 7 | 04/19 | 18:00 | 58 | 39 | 50 | 30.07 | S | 7 | 0.00 |
| 8 | 04/19 | 17:00 | 60 | 39 | 46 | 30.08 | SE | 4 | 0.00 |
| 9 | 04/19 | 16:00 | 63 | 39 | 42 | 30.06 | S | 11 | 0.00 |
| 10 | 04/19 | 15:00 | 63 | 40 | 44 | 30.08 | ESE | 0 | 0.00 |
| 11 | 04/19 | 14:00 | 63 | 40 | 44 | 30.10 | S | 3 | 0.00 |
| 12 | 04/19 | 13:00 | 64 | 42 | 45 | 30.13 | SE | 9 | 0.00 |
| 13 | 04/19 | 12:00 | 63 | 38 | 40 | 30.16 | SE | 9 | 0.00 |
| 14 | 04/19 | 11:00 | 61 | 38 | 44 | 30.18 | SE | 5 | 0.00 |
| 15 | 04/19 | 10:00 | 59 | 34 | 40 | 30.18 | E | 1 | 0.00 |
| 16 | 04/19 | 09:00 | 56 | 33 | 43 | 30.18 | E | 5 | 0.00 |
| 17 | 04/19 | 08:00 | 51 | 35 | 55 | 30.17 | ENE | 3 | 0.00 |
| 18 | 04/19 | 07:00 | 48 | 35 | 63 | 30.16 | E | 0 | 0.00 |
| 19 | 04/19 | 06:00 | 52 | 30 | 43 | 30.12 | NNE | 0 | 0.00 |
| 20 | 04/19 | 05:00 | 54 | 30 | 40 | 30.10 | NE | 4 | 0.00 |
| 21 | 04/19 | 04:00 | 54 | 30 | 40 | 30.09 | E | 6 | 0.00 |
| 22 | 04/19 | 03:00 | 58 | 29 | 34 | 30.08 | NE | 0 | 0.00 |
| 23 | 04/19 | 02:00 | 59 | 32 | 37 | 30.07 | E | 0 | 0.00 |
| 24 | 04/19 | 01:00 | 61 | 35 | 39 | 30.04 | ENE | 3 | 0.00 |